Terminal Aerodrome Forecast
Issued by NWS

Home | Current Version | Previous Version | Text Only | Print | Product List | Glossary On
Versions: 1 2 3 4 5 6 7 8 9 10 11 12 13
000
FTUS42 TJSJ 031100 RRA
TAFNCM
TAF
TNCM 031141Z 0312/0412 08009KT P6SM FEW018
     FM031300 08015KT P6SM SCT022
     FM032300 08010KT P6SM FEW020=

USA.gov is the U.S. government's official web portal to all federal, state and local government web resources and services.